sensor_id;sensor_type;location;lat;lon;timestamp;P1;P2;P0
50866;PMS7003;36839;51.946;21.002;2024-03-07T00:00:32;0.00;0.00;0.00
50866;PMS7003;36839;51.946;21.002;2024-03-07T00:03:19;0.00;0.00;0.00
50866;PMS7003;36839;51.946;21.002;2024-03-07T00:05:46;0.00;0.00;0.00
50866;PMS7003;36839;51.946;21.002;2024-03-07T00:08:13;0.00;0.00;0.00
50866;PMS7003;36839;51.946;21.002;2024-03-07T00:10:40;0.50;0.50;0.00
50866;PMS7003;36839;51.946;21.002;2024-03-07T00:13:10;0.00;0.00;0.00
50866;PMS7003;36839;51.946;21.002;2024-03-07T00:15:39;0.00;0.00;0.00
50866;PMS7003;36839;51.946;21.002;2024-03-07T00:18:07;0.00;0.00;0.00
50866;PMS7003;36839;51.946;21.002;2024-03-07T00:20:33;0.00;0.00;0.00
50866;PMS7003;36839;51.946;21.002;2024-03-07T00:23:01;0.00;0.00;0.00
50866;PMS7003;36839;51.946;21.002;2024-03-07T00:25:30;0.00;0.00;0.00
50866;PMS7003;36839;51.946;21.002;2024-03-07T00:27:57;0.00;0.00;0.00
50866;PMS7003;36839;51.946;21.002;2024-03-07T00:30:29;0.00;0.00;0.00
50866;PMS7003;36839;51.946;21.002;2024-03-07T00:32:56;0.00;0.00;0.00
50866;PMS7003;36839;51.946;21.002;2024-03-07T00:35:24;0.00;0.00;0.00
50866;PMS7003;36839;51.946;21.002;2024-03-07T00:37:51;0.00;0.00;0.00
50866;PMS7003;36839;51.946;21.002;2024-03-07T00:40:17;0.00;0.00;0.00
50866;PMS7003;36839;51.946;21.002;2024-03-07T00:42:44;1.00;1.00;1.00
50866;PMS7003;36839;51.946;21.002;2024-03-07T00:45:10;0.00;0.00;0.00
50866;PMS7003;36839;51.946;21.002;2024-03-07T00:47:38;0.00;0.00;0.00
50866;PMS7003;36839;51.946;21.002;2024-03-07T00:50:05;0.00;0.00;0.00
50866;PMS7003;36839;51.946;21.002;2024-03-07T00:52:35;0.00;0.00;0.00
50866;PMS7003;36839;51.946;21.002;2024-03-07T00:55:02;0.00;0.00;0.00
50866;PMS7003;36839;51.946;21.002;2024-03-07T00:57:29;0.00;0.00;0.00
50866;PMS7003;36839;51.946;21.002;2024-03-07T00:59:55;0.25;0.25;0.25
50866;PMS7003;36839;51.946;21.002;2024-03-07T01:02:23;4.00;4.00;4.00
50866;PMS7003;36839;51.946;21.002;2024-03-07T01:04:49;0.00;0.00;0.00
50866;PMS7003;36839;51.946;21.002;2024-03-07T01:07:16;0.00;0.00;0.00
50866;PMS7003;36839;51.946;21.002;2024-03-07T01:09:43;12.00;12.00;9.00
50866;PMS7003;36839;51.946;21.002;2024-03-07T01:12:09;0.00;0.00;0.00
50866;PMS7003;36839;51.946;21.002;2024-03-07T01:14:37;0.00;0.00;0.00
50866;PMS7003;36839;51.946;21.002;2024-03-07T01:17:04;0.00;0.00;0.00
50866;PMS7003;36839;51.946;21.002;2024-03-07T01:19:34;0.00;0.00;0.00
50866;PMS7003;36839;51.946;21.002;2024-03-07T01:22:00;0.00;0.00;0.00
50866;PMS7003;36839;51.946;21.002;2024-03-07T01:24:27;0.00;0.00;0.00
50866;PMS7003;36839;51.946;21.002;2024-03-07T01:26:53;0.00;0.00;0.00
50866;PMS7003;36839;51.946;21.002;2024-03-07T01:29:20;0.00;0.00;0.00
50866;PMS7003;36839;51.946;21.002;2024-03-07T01:31:47;0.00;0.00;0.00
50866;PMS7003;36839;51.946;21.002;2024-03-07T01:34:15;0.00;0.00;0.00
50866;PMS7003;36839;51.946;21.002;2024-03-07T01:36:42;0.00;0.00;0.00
50866;PMS7003;36839;51.946;21.002;2024-03-07T01:39:08;0.00;0.00;0.00
50866;PMS7003;36839;51.946;21.002;2024-03-07T01:41:36;0.00;0.00;0.00
50866;PMS7003;36839;51.946;21.002;2024-03-07T01:44:03;0.00;0.00;0.00
50866;PMS7003;36839;51.946;21.002;2024-03-07T01:46:30;0.00;0.00;0.00
50866;PMS7003;36839;51.946;21.002;2024-03-07T01:48:58;0.00;0.00;0.00
50866;PMS7003;36839;51.946;21.002;2024-03-07T01:51:25;0.00;0.00;0.00
50866;PMS7003;36839;51.946;21.002;2024-03-07T01:53:52;0.00;0.00;0.00
50866;PMS7003;36839;51.946;21.002;2024-03-07T01:56:19;0.00;0.00;0.00
50866;PMS7003;36839;51.946;21.002;2024-03-07T01:58:47;0.00;0.00;0.00
50866;PMS7003;36839;51.946;21.002;2024-03-07T02:01:15;1.00;1.00;0.00
50866;PMS7003;36839;51.946;21.002;2024-03-07T02:03:42;1.00;1.00;1.00
50866;PMS7003;36839;51.946;21.002;2024-03-07T02:06:09;0.00;0.00;0.00
50866;PMS7003;36839;51.946;21.002;2024-03-07T02:08:39;0.00;0.00;0.00
50866;PMS7003;36839;51.946;21.002;2024-03-07T02:11:06;0.00;0.00;0.00
50866;PMS7003;36839;51.946;21.002;2024-03-07T02:13:36;0.00;0.00;0.00
50866;PMS7003;36839;51.946;21.002;2024-03-07T02:16:03;0.00;0.00;0.00
50866;PMS7003;36839;51.946;21.002;2024-03-07T02:18:29;0.00;0.00;0.00
50866;PMS7003;36839;51.946;21.002;2024-03-07T02:20:56;0.00;0.00;0.00
50866;PMS7003;36839;51.946;21.002;2024-03-07T02:23:23;19.00;19.00;12.00
50866;PMS7003;36839;51.946;21.002;2024-03-07T02:25:50;0.00;0.00;0.00
50866;PMS7003;36839;51.946;21.002;2024-03-07T02:28:17;0.00;0.00;0.00
50866;PMS7003;36839;51.946;21.002;2024-03-07T02:30:44;0.00;0.00;0.00
50866;PMS7003;36839;51.946;21.002;2024-03-07T02:33:12;1.00;1.00;1.00
50866;PMS7003;36839;51.946;21.002;2024-03-07T02:35:38;0.00;0.00;0.00
50866;PMS7003;36839;51.946;21.002;2024-03-07T02:38:06;0.00;0.00;0.00
50866;PMS7003;36839;51.946;21.002;2024-03-07T02:40:33;0.00;0.00;0.00
50866;PMS7003;36839;51.946;21.002;2024-03-07T02:42:59;0.00;0.00;0.00
50866;PMS7003;36839;51.946;21.002;2024-03-07T02:45:27;0.00;0.00;0.00
50866;PMS7003;36839;51.946;21.002;2024-03-07T02:47:53;0.00;0.00;0.00
50866;PMS7003;36839;51.946;21.002;2024-03-07T02:50:20;4.00;4.00;3.00
50866;PMS7003;36839;51.946;21.002;2024-03-07T02:52:48;0.00;0.00;0.00
50866;PMS7003;36839;51.946;21.002;2024-03-07T02:55:16;0.00;0.00;0.00
50866;PMS7003;36839;51.946;21.002;2024-03-07T02:57:42;0.00;0.00;0.00
50866;PMS7003;36839;51.946;21.002;2024-03-07T03:00:09;0.00;0.00;0.00
50866;PMS7003;36839;51.946;21.002;2024-03-07T03:02:57;0.00;0.00;0.00
50866;PMS7003;36839;51.946;21.002;2024-03-07T03:05:23;0.00;0.00;0.00
50866;PMS7003;36839;51.946;21.002;2024-03-07T03:07:51;0.00;0.00;0.00
50866;PMS7003;36839;51.946;21.002;2024-03-07T03:10:21;0.00;0.00;0.00
50866;PMS7003;36839;51.946;21.002;2024-03-07T03:12:59;0.00;0.00;0.00
50866;PMS7003;36839;51.946;21.002;2024-03-07T03:15:27;0.00;0.00;0.00
50866;PMS7003;36839;51.946;21.002;2024-03-07T03:17:54;0.00;0.00;0.00
50866;PMS7003;36839;51.946;21.002;2024-03-07T03:20:21;3.00;3.00;3.00
50866;PMS7003;36839;51.946;21.002;2024-03-07T03:22:54;0.00;0.00;0.00
50866;PMS7003;36839;51.946;21.002;2024-03-07T03:25:40;0.00;0.00;0.00
50866;PMS7003;36839;51.946;21.002;2024-03-07T03:28:08;0.00;0.00;0.00
50866;PMS7003;36839;51.946;21.002;2024-03-07T03:30:37;0.00;0.00;0.00
50866;PMS7003;36839;51.946;21.002;2024-03-07T03:33:05;0.00;0.00;0.00
50866;PMS7003;36839;51.946;21.002;2024-03-07T03:35:33;0.00;0.00;0.00
50866;PMS7003;36839;51.946;21.002;2024-03-07T03:38:00;6.00;6.00;6.00
50866;PMS7003;36839;51.946;21.002;2024-03-07T03:40:28;0.00;0.00;0.00
50866;PMS7003;36839;51.946;21.002;2024-03-07T03:42:55;0.00;0.00;0.00
50866;PMS7003;36839;51.946;21.002;2024-03-07T03:45:21;0.00;0.00;0.00
50866;PMS7003;36839;51.946;21.002;2024-03-07T03:47:48;0.00;0.00;0.00
50866;PMS7003;36839;51.946;21.002;2024-03-07T03:50:14;34.00;34.00;30.00
50866;PMS7003;36839;51.946;21.002;2024-03-07T03:52:41;0.00;0.00;0.00
50866;PMS7003;36839;51.946;21.002;2024-03-07T03:55:08;0.00;0.00;0.00
50866;PMS7003;36839;51.946;21.002;2024-03-07T03:57:40;0.00;0.00;0.00
50866;PMS7003;36839;51.946;21.002;2024-03-07T04:00:09;0.00;0.00;0.00
50866;PMS7003;36839;51.946;21.002;2024-03-07T04:02:41;0.00;0.00;0.00
50866;PMS7003;36839;51.946;21.002;2024-03-07T04:05:10;0.00;0.00;0.00
50866;PMS7003;36839;51.946;21.002;2024-03-07T04:07:39;0.00;0.00;0.00
50866;PMS7003;36839;51.946;21.002;2024-03-07T04:10:08;0.00;0.00;0.00
50866;PMS7003;36839;51.946;21.002;2024-03-07T04:12:37;0.00;0.00;0.00
50866;PMS7003;36839;51.946;21.002;2024-03-07T04:15:10;0.00;0.00;0.00
50866;PMS7003;36839;51.946;21.002;2024-03-07T04:17:38;0.00;0.00;0.00
50866;PMS7003;36839;51.946;21.002;2024-03-07T04:20:05;0.00;0.00;0.00
50866;PMS7003;36839;51.946;21.002;2024-03-07T04:22:33;0.00;0.00;0.00
50866;PMS7003;36839;51.946;21.002;2024-03-07T04:25:01;0.00;0.00;0.00
50866;PMS7003;36839;51.946;21.002;2024-03-07T04:27:29;0.00;0.00;0.00
50866;PMS7003;36839;51.946;21.002;2024-03-07T04:29:57;0.00;0.00;0.00
50866;PMS7003;36839;51.946;21.002;2024-03-07T04:32:23;0.00;0.00;0.00
50866;PMS7003;36839;51.946;21.002;2024-03-07T04:34:50;0.00;0.00;0.00
50866;PMS7003;36839;51.946;21.002;2024-03-07T04:37:17;0.00;0.00;0.00
50866;PMS7003;36839;51.946;21.002;2024-03-07T04:39:44;0.00;0.00;0.00
50866;PMS7003;36839;51.946;21.002;2024-03-07T04:42:12;0.00;0.00;0.00
50866;PMS7003;36839;51.946;21.002;2024-03-07T04:44:38;0.00;0.00;0.00
50866;PMS7003;36839;51.946;21.002;2024-03-07T04:47:05;0.00;0.00;0.00
50866;PMS7003;36839;51.946;21.002;2024-03-07T04:49:33;0.00;0.00;0.00
50866;PMS7003;36839;51.946;21.002;2024-03-07T04:52:02;4.50;4.50;2.00
50866;PMS7003;36839;51.946;21.002;2024-03-07T04:54:29;0.00;0.00;0.00
50866;PMS7003;36839;51.946;21.002;2024-03-07T04:56:58;0.00;0.00;0.00
50866;PMS7003;36839;51.946;21.002;2024-03-07T04:59:25;0.00;0.00;0.00
50866;PMS7003;36839;51.946;21.002;2024-03-07T05:01:52;0.00;0.00;0.00
50866;PMS7003;36839;51.946;21.002;2024-03-07T05:04:19;0.00;0.00;0.00
50866;PMS7003;36839;51.946;21.002;2024-03-07T05:06:45;0.00;0.00;0.00
50866;PMS7003;36839;51.946;21.002;2024-03-07T05:09:15;0.00;0.00;0.00
50866;PMS7003;36839;51.946;21.002;2024-03-07T05:11:49;0.00;0.00;0.00
50866;PMS7003;36839;51.946;21.002;2024-03-07T05:14:19;0.00;0.00;0.00
50866;PMS7003;36839;51.946;21.002;2024-03-07T05:16:47;0.00;0.00;0.00
50866;PMS7003;36839;51.946;21.002;2024-03-07T05:19:34;0.00;0.00;0.00
50866;PMS7003;36839;51.946;21.002;2024-03-07T05:22:02;0.00;0.00;0.00
50866;PMS7003;36839;51.946;21.002;2024-03-07T05:24:32;0.00;0.00;0.00
50866;PMS7003;36839;51.946;21.002;2024-03-07T05:27:00;0.00;0.00;0.00
50866;PMS7003;36839;51.946;21.002;2024-03-07T05:29:26;0.00;0.00;0.00
50866;PMS7003;36839;51.946;21.002;2024-03-07T05:31:53;0.00;0.00;0.00
50866;PMS7003;36839;51.946;21.002;2024-03-07T05:34:19;0.00;0.00;0.00
50866;PMS7003;36839;51.946;21.002;2024-03-07T05:36:47;0.00;0.00;0.00
50866;PMS7003;36839;51.946;21.002;2024-03-07T05:39:14;0.00;0.00;0.00
50866;PMS7003;36839;51.946;21.002;2024-03-07T05:41:42;0.00;0.00;0.00
50866;PMS7003;36839;51.946;21.002;2024-03-07T05:44:12;0.00;0.00;0.00
50866;PMS7003;36839;51.946;21.002;2024-03-07T05:46:41;0.00;0.00;0.00
50866;PMS7003;36839;51.946;21.002;2024-03-07T05:49:13;0.00;0.00;0.00
50866;PMS7003;36839;51.946;21.002;2024-03-07T05:51:41;0.00;0.00;0.00
50866;PMS7003;36839;51.946;21.002;2024-03-07T05:54:08;0.00;0.00;0.00
50866;PMS7003;36839;51.946;21.002;2024-03-07T05:56:35;0.00;0.00;0.00
50866;PMS7003;36839;51.946;21.002;2024-03-07T05:59:02;2.33;2.33;2.33
50866;PMS7003;36839;51.946;21.002;2024-03-07T06:01:38;3.00;3.00;3.00
50866;PMS7003;36839;51.946;21.002;2024-03-07T06:04:06;6.00;6.00;1.00
50866;PMS7003;36839;51.946;21.002;2024-03-07T06:06:33;0.00;0.00;0.00
50866;PMS7003;36839;51.946;21.002;2024-03-07T06:09:02;1.00;1.00;1.00
50866;PMS7003;36839;51.946;21.002;2024-03-07T06:11:34;0.00;0.00;0.00
50866;PMS7003;36839;51.946;21.002;2024-03-07T06:14:02;0.00;0.00;0.00
50866;PMS7003;36839;51.946;21.002;2024-03-07T06:16:30;0.00;0.00;0.00
50866;PMS7003;36839;51.946;21.002;2024-03-07T06:19:01;0.00;0.00;0.00
50866;PMS7003;36839;51.946;21.002;2024-03-07T06:21:30;0.00;0.00;0.00
50866;PMS7003;36839;51.946;21.002;2024-03-07T06:23:57;0.00;0.00;0.00
50866;PMS7003;36839;51.946;21.002;2024-03-07T06:26:31;0.00;0.00;0.00
50866;PMS7003;36839;51.946;21.002;2024-03-07T06:29:11;9.00;9.00;9.00
50866;PMS7003;36839;51.946;21.002;2024-03-07T06:31:39;0.00;0.00;0.00
50866;PMS7003;36839;51.946;21.002;2024-03-07T06:34:09;0.00;0.00;0.00
50866;PMS7003;36839;51.946;21.002;2024-03-07T06:36:37;0.00;0.00;0.00
50866;PMS7003;36839;51.946;21.002;2024-03-07T06:39:05;0.00;0.00;0.00
50866;PMS7003;36839;51.946;21.002;2024-03-07T06:41:32;1.00;1.00;1.00
50866;PMS7003;36839;51.946;21.002;2024-03-07T06:44:00;0.00;0.00;0.00
50866;PMS7003;36839;51.946;21.002;2024-03-07T06:46:27;0.00;0.00;0.00
50866;PMS7003;36839;51.946;21.002;2024-03-07T06:48:55;0.00;0.00;0.00
50866;PMS7003;36839;51.946;21.002;2024-03-07T06:51:25;0.00;0.00;0.00
50866;PMS7003;36839;51.946;21.002;2024-03-07T06:53:51;0.00;0.00;0.00
50866;PMS7003;36839;51.946;21.002;2024-03-07T06:56:18;0.00;0.00;0.00
50866;PMS7003;36839;51.946;21.002;2024-03-07T06:58:45;3.00;3.00;3.00
50866;PMS7003;36839;51.946;21.002;2024-03-07T07:01:12;0.00;0.00;0.00
50866;PMS7003;36839;51.946;21.002;2024-03-07T07:03:41;0.00;0.00;0.00
50866;PMS7003;36839;51.946;21.002;2024-03-07T07:06:18;0.00;0.00;0.00
50866;PMS7003;36839;51.946;21.002;2024-03-07T07:08:45;0.00;0.00;0.00
50866;PMS7003;36839;51.946;21.002;2024-03-07T07:11:12;2.00;2.00;2.00
50866;PMS7003;36839;51.946;21.002;2024-03-07T07:13:38;0.00;0.00;0.00
50866;PMS7003;36839;51.946;21.002;2024-03-07T07:16:05;0.00;0.00;0.00
50866;PMS7003;36839;51.946;21.002;2024-03-07T07:18:32;0.00;0.00;0.00
50866;PMS7003;36839;51.946;21.002;2024-03-07T07:20:58;0.00;0.00;0.00
50866;PMS7003;36839;51.946;21.002;2024-03-07T07:23:25;0.00;0.00;0.00
50866;PMS7003;36839;51.946;21.002;2024-03-07T07:25:53;0.00;0.00;0.00
50866;PMS7003;36839;51.946;21.002;2024-03-07T07:28:20;0.00;0.00;0.00
50866;PMS7003;36839;51.946;21.002;2024-03-07T07:30:47;9.00;9.00;9.00
50866;PMS7003;36839;51.946;21.002;2024-03-07T07:33:14;0.00;0.00;0.00
50866;PMS7003;36839;51.946;21.002;2024-03-07T07:35:41;2.00;2.00;2.00
50866;PMS7003;36839;51.946;21.002;2024-03-07T07:38:08;19.00;19.00;16.00
50866;PMS7003;36839;51.946;21.002;2024-03-07T07:40:37;0.00;0.00;0.00
50866;PMS7003;36839;51.946;21.002;2024-03-07T07:43:04;0.00;0.00;0.00
50866;PMS7003;36839;51.946;21.002;2024-03-07T07:45:31;0.00;0.00;0.00
50866;PMS7003;36839;51.946;21.002;2024-03-07T07:47:59;0.00;0.00;0.00
50866;PMS7003;36839;51.946;21.002;2024-03-07T07:50:26;0.00;0.00;0.00
50866;PMS7003;36839;51.946;21.002;2024-03-07T07:52:57;0.00;0.00;0.00
50866;PMS7003;36839;51.946;21.002;2024-03-07T07:55:26;0.00;0.00;0.00
50866;PMS7003;36839;51.946;21.002;2024-03-07T07:57:55;1.00;1.00;1.00
50866;PMS7003;36839;51.946;21.002;2024-03-07T08:00:26;0.00;0.00;0.00
50866;PMS7003;36839;51.946;21.002;2024-03-07T08:02:58;0.00;0.00;0.00
50866;PMS7003;36839;51.946;21.002;2024-03-07T08:05:35;0.00;0.00;0.00
50866;PMS7003;36839;51.946;21.002;2024-03-07T08:08:04;0.00;0.00;0.00
50866;PMS7003;36839;51.946;21.002;2024-03-07T08:10:33;1.00;1.00;1.00
50866;PMS7003;36839;51.946;21.002;2024-03-07T08:13:01;0.00;0.00;0.00
50866;PMS7003;36839;51.946;21.002;2024-03-07T08:15:30;4.00;1.00;1.00
50866;PMS7003;36839;51.946;21.002;2024-03-07T08:17:57;1.00;1.00;0.00
50866;PMS7003;36839;51.946;21.002;2024-03-07T08:20:26;0.00;0.00;0.00
50866;PMS7003;36839;51.946;21.002;2024-03-07T08:22:54;0.00;0.00;0.00
50866;PMS7003;36839;51.946;21.002;2024-03-07T08:25:23;0.00;0.00;0.00
50866;PMS7003;36839;51.946;21.002;2024-03-07T08:27:52;0.00;0.00;0.00
50866;PMS7003;36839;51.946;21.002;2024-03-07T08:30:20;0.00;0.00;0.00
50866;PMS7003;36839;51.946;21.002;2024-03-07T08:32:51;0.00;0.00;0.00
50866;PMS7003;36839;51.946;21.002;2024-03-07T08:35:20;0.00;0.00;0.00
50866;PMS7003;36839;51.946;21.002;2024-03-07T08:37:49;0.00;0.00;0.00
50866;PMS7003;36839;51.946;21.002;2024-03-07T08:40:27;0.00;0.00;0.00
50866;PMS7003;36839;51.946;21.002;2024-03-07T08:43:01;0.00;0.00;0.00
50866;PMS7003;36839;51.946;21.002;2024-03-07T08:45:33;0.00;0.00;0.00
50866;PMS7003;36839;51.946;21.002;2024-03-07T08:47:59;0.00;0.00;0.00
50866;PMS7003;36839;51.946;21.002;2024-03-07T08:50:27;0.00;0.00;0.00
50866;PMS7003;36839;51.946;21.002;2024-03-07T08:52:54;0.00;0.00;0.00
50866;PMS7003;36839;51.946;21.002;2024-03-07T08:55:24;0.00;0.00;0.00
50866;PMS7003;36839;51.946;21.002;2024-03-07T08:57:52;0.00;0.00;0.00
50866;PMS7003;36839;51.946;21.002;2024-03-07T09:00:20;0.00;0.00;0.00
50866;PMS7003;36839;51.946;21.002;2024-03-07T09:02:53;0.00;0.00;0.00
50866;PMS7003;36839;51.946;21.002;2024-03-07T09:05:25;0.00;0.00;0.00
50866;PMS7003;36839;51.946;21.002;2024-03-07T09:07:53;0.00;0.00;0.00
50866;PMS7003;36839;51.946;21.002;2024-03-07T09:10:21;0.00;0.00;0.00
50866;PMS7003;36839;51.946;21.002;2024-03-07T09:12:49;0.00;0.00;0.00
50866;PMS7003;36839;51.946;21.002;2024-03-07T09:15:18;0.00;0.00;0.00
50866;PMS7003;36839;51.946;21.002;2024-03-07T09:17:49;1.50;1.50;1.50
50866;PMS7003;36839;51.946;21.002;2024-03-07T09:20:16;0.00;0.00;0.00
50866;PMS7003;36839;51.946;21.002;2024-03-07T09:22:45;0.00;0.00;0.00
50866;PMS7003;36839;51.946;21.002;2024-03-07T09:25:17;0.00;0.00;0.00
50866;PMS7003;36839;51.946;21.002;2024-03-07T09:27:45;0.00;0.00;0.00
50866;PMS7003;36839;51.946;21.002;2024-03-07T09:30:12;0.00;0.00;0.00
50866;PMS7003;36839;51.946;21.002;2024-03-07T09:32:41;0.00;0.00;0.00
50866;PMS7003;36839;51.946;21.002;2024-03-07T09:35:08;0.00;0.00;0.00
50866;PMS7003;36839;51.946;21.002;2024-03-07T09:37:40;0.00;0.00;0.00
50866;PMS7003;36839;51.946;21.002;2024-03-07T09:40:08;0.00;0.00;0.00
50866;PMS7003;36839;51.946;21.002;2024-03-07T09:42:44;0.00;0.00;0.00
50866;PMS7003;36839;51.946;21.002;2024-03-07T09:45:13;2.00;0.00;0.00
50866;PMS7003;36839;51.946;21.002;2024-03-07T09:47:44;0.00;0.00;0.00
50866;PMS7003;36839;51.946;21.002;2024-03-07T09:50:17;0.00;0.00;0.00
50866;PMS7003;36839;51.946;21.002;2024-03-07T09:52:52;0.00;0.00;0.00
50866;PMS7003;36839;51.946;21.002;2024-03-07T09:55:19;0.00;0.00;0.00
50866;PMS7003;36839;51.946;21.002;2024-03-07T09:57:48;0.00;0.00;0.00
50866;PMS7003;36839;51.946;21.002;2024-03-07T10:00:17;0.00;0.00;0.00
50866;PMS7003;36839;51.946;21.002;2024-03-07T10:02:53;0.00;0.00;0.00
50866;PMS7003;36839;51.946;21.002;2024-03-07T10:05:21;0.00;0.00;0.00
50866;PMS7003;36839;51.946;21.002;2024-03-07T10:07:49;0.00;0.00;0.00
50866;PMS7003;36839;51.946;21.002;2024-03-07T10:10:17;0.00;0.00;0.00
50866;PMS7003;36839;51.946;21.002;2024-03-07T10:12:45;0.00;0.00;0.00
50866;PMS7003;36839;51.946;21.002;2024-03-07T10:15:12;0.00;0.00;0.00
50866;PMS7003;36839;51.946;21.002;2024-03-07T10:17:39;0.00;0.00;0.00
50866;PMS7003;36839;51.946;21.002;2024-03-07T10:20:11;0.00;0.00;0.00
50866;PMS7003;36839;51.946;21.002;2024-03-07T10:22:40;0.00;0.00;0.00
50866;PMS7003;36839;51.946;21.002;2024-03-07T10:25:08;0.00;0.00;0.00
50866;PMS7003;36839;51.946;21.002;2024-03-07T10:27:36;0.00;0.00;0.00
50866;PMS7003;36839;51.946;21.002;2024-03-07T10:30:05;0.00;0.00;0.00
50866;PMS7003;36839;51.946;21.002;2024-03-07T10:32:35;0.00;0.00;0.00
50866;PMS7003;36839;51.946;21.002;2024-03-07T10:35:03;0.00;0.00;0.00
50866;PMS7003;36839;51.946;21.002;2024-03-07T10:37:34;0.00;0.00;0.00
50866;PMS7003;36839;51.946;21.002;2024-03-07T10:40:02;0.00;0.00;0.00
50866;PMS7003;36839;51.946;21.002;2024-03-07T10:42:44;0.00;0.00;0.00
50866;PMS7003;36839;51.946;21.002;2024-03-07T10:45:13;0.00;0.00;0.00
50866;PMS7003;36839;51.946;21.002;2024-03-07T10:47:49;0.00;0.00;0.00
50866;PMS7003;36839;51.946;21.002;2024-03-07T11:01:25;0.00;0.00;0.00
50866;PMS7003;36839;51.946;21.002;2024-03-07T11:03:57;0.00;0.00;0.00
50866;PMS7003;36839;51.946;21.002;2024-03-07T11:06:26;0.00;0.00;0.00
50866;PMS7003;36839;51.946;21.002;2024-03-07T11:08:53;0.00;0.00;0.00
50866;PMS7003;36839;51.946;21.002;2024-03-07T11:11:21;0.00;0.00;0.00
50866;PMS7003;36839;51.946;21.002;2024-03-07T11:13:49;0.00;0.00;0.00
50866;PMS7003;36839;51.946;21.002;2024-03-07T11:16:20;1.00;1.00;1.00
50866;PMS7003;36839;51.946;21.002;2024-03-07T11:21:45;0.00;0.00;0.00
50866;PMS7003;36839;51.946;21.002;2024-03-07T11:24:31;0.00;0.00;0.00
50866;PMS7003;36839;51.946;21.002;2024-03-07T11:27:02;1.00;1.00;0.00
50866;PMS7003;36839;51.946;21.002;2024-03-07T11:32:22;0.00;0.00;0.00
50866;PMS7003;36839;51.946;21.002;2024-03-07T11:34:49;0.00;0.00;0.00
50866;PMS7003;36839;51.946;21.002;2024-03-07T11:37:20;0.00;0.00;0.00
50866;PMS7003;36839;51.946;21.002;2024-03-07T11:40:11;0.00;0.00;0.00
50866;PMS7003;36839;51.946;21.002;2024-03-07T11:42:47;0.00;0.00;0.00
50866;PMS7003;36839;51.946;21.002;2024-03-07T11:45:15;0.00;0.00;0.00
50866;PMS7003;36839;51.946;21.002;2024-03-07T11:47:52;0.00;0.00;0.00
50866;PMS7003;36839;51.946;21.002;2024-03-07T11:50:33;0.00;0.00;0.00
50866;PMS7003;36839;51.946;21.002;2024-03-07T11:53:03;0.00;0.00;0.00
50866;PMS7003;36839;51.946;21.002;2024-03-07T11:55:35;0.00;0.00;0.00
50866;PMS7003;36839;51.946;21.002;2024-03-07T11:58:13;0.00;0.00;0.00
50866;PMS7003;36839;51.946;21.002;2024-03-07T12:00:44;0.00;0.00;0.00
50866;PMS7003;36839;51.946;21.002;2024-03-07T12:03:12;0.00;0.00;0.00
50866;PMS7003;36839;51.946;21.002;2024-03-07T12:05:41;0.00;0.00;0.00
50866;PMS7003;36839;51.946;21.002;2024-03-07T12:08:09;0.00;0.00;0.00
50866;PMS7003;36839;51.946;21.002;2024-03-07T12:10:38;0.00;0.00;0.00
50866;PMS7003;36839;51.946;21.002;2024-03-07T12:13:13;0.00;0.00;0.00
50866;PMS7003;36839;51.946;21.002;2024-03-07T12:15:46;0.00;0.00;0.00
50866;PMS7003;36839;51.946;21.002;2024-03-07T12:18:13;0.00;0.00;0.00
50866;PMS7003;36839;51.946;21.002;2024-03-07T12:20:41;0.00;0.00;0.00
50866;PMS7003;36839;51.946;21.002;2024-03-07T12:23:08;0.00;0.00;0.00
50866;PMS7003;36839;51.946;21.002;2024-03-07T12:25:35;0.00;0.00;0.00
50866;PMS7003;36839;51.946;21.002;2024-03-07T12:28:10;0.00;0.00;0.00
50866;PMS7003;36839;51.946;21.002;2024-03-07T12:30:51;0.00;0.00;0.00
50866;PMS7003;36839;51.946;21.002;2024-03-07T12:33:18;0.50;0.50;0.50
50866;PMS7003;36839;51.946;21.002;2024-03-07T12:35:46;0.00;0.00;0.00
50866;PMS7003;36839;51.946;21.002;2024-03-07T12:38:16;0.00;0.00;0.00
50866;PMS7003;36839;51.946;21.002;2024-03-07T12:40:43;0.00;0.00;0.00
50866;PMS7003;36839;51.946;21.002;2024-03-07T12:43:13;0.00;0.00;0.00
50866;PMS7003;36839;51.946;21.002;2024-03-07T12:45:49;0.00;0.00;0.00
50866;PMS7003;36839;51.946;21.002;2024-03-07T12:48:17;0.00;0.00;0.00
50866;PMS7003;36839;51.946;21.002;2024-03-07T12:50:48;0.00;0.00;0.00
50866;PMS7003;36839;51.946;21.002;2024-03-07T12:53:19;0.00;0.00;0.00
50866;PMS7003;36839;51.946;21.002;2024-03-07T12:55:48;0.00;0.00;0.00
50866;PMS7003;36839;51.946;21.002;2024-03-07T12:58:15;0.00;0.00;0.00
50866;PMS7003;36839;51.946;21.002;2024-03-07T13:00:41;0.00;0.00;0.00
50866;PMS7003;36839;51.946;21.002;2024-03-07T13:03:09;0.00;0.00;0.00
50866;PMS7003;36839;51.946;21.002;2024-03-07T13:05:37;0.00;0.00;0.00
50866;PMS7003;36839;51.946;21.002;2024-03-07T13:08:07;0.00;0.00;0.00
50866;PMS7003;36839;51.946;21.002;2024-03-07T13:10:43;0.00;0.00;0.00
50866;PMS7003;36839;51.946;21.002;2024-03-07T13:13:11;0.00;0.00;0.00
50866;PMS7003;36839;51.946;21.002;2024-03-07T13:15:38;0.00;0.00;0.00
50866;PMS7003;36839;51.946;21.002;2024-03-07T13:18:05;0.00;0.00;0.00
50866;PMS7003;36839;51.946;21.002;2024-03-07T13:20:33;0.00;0.00;0.00
50866;PMS7003;36839;51.946;21.002;2024-03-07T13:23:00;0.00;0.00;0.00
50866;PMS7003;36839;51.946;21.002;2024-03-07T13:25:28;0.00;0.00;0.00
50866;PMS7003;36839;51.946;21.002;2024-03-07T13:28:03;0.00;0.00;0.00
50866;PMS7003;36839;51.946;21.002;2024-03-07T13:30:41;0.00;0.00;0.00
50866;PMS7003;36839;51.946;21.002;2024-03-07T13:33:10;0.00;0.00;0.00
50866;PMS7003;36839;51.946;21.002;2024-03-07T13:35:40;0.00;0.00;0.00
50866;PMS7003;36839;51.946;21.002;2024-03-07T13:38:08;0.00;0.00;0.00
50866;PMS7003;36839;51.946;21.002;2024-03-07T13:40:35;0.00;0.00;0.00
50866;PMS7003;36839;51.946;21.002;2024-03-07T13:43:06;0.00;0.00;0.00
50866;PMS7003;36839;51.946;21.002;2024-03-07T13:45:35;0.00;0.00;0.00
50866;PMS7003;36839;51.946;21.002;2024-03-07T13:48:06;0.00;0.00;0.00
50866;PMS7003;36839;51.946;21.002;2024-03-07T13:50:34;13.00;12.00;10.00
50866;PMS7003;36839;51.946;21.002;2024-03-07T13:53:02;12.00;12.00;8.50
50866;PMS7003;36839;51.946;21.002;2024-03-07T14:07:17;12.50;11.00;9.00
50866;PMS7003;36839;51.946;21.002;2024-03-07T14:10:13;16.00;14.00;10.00
50866;PMS7003;36839;51.946;21.002;2024-03-07T14:16:41;19.67;15.67;11.00
50866;PMS7003;36839;51.946;21.002;2024-03-07T14:19:44;18.00;16.00;11.00
50866;PMS7003;36839;51.946;21.002;2024-03-07T14:22:30;18.00;15.00;11.00
50866;PMS7003;36839;51.946;21.002;2024-03-07T14:28:12;18.00;12.00;8.00
50866;PMS7003;36839;51.946;21.002;2024-03-07T14:31:19;13.00;13.00;10.00
50866;PMS7003;36839;51.946;21.002;2024-03-07T14:36:43;14.00;12.00;9.00
50866;PMS7003;36839;51.946;21.002;2024-03-07T14:39:14;10.00;10.00;10.00
50866;PMS7003;36839;51.946;21.002;2024-03-07T14:41:58;18.00;14.50;11.50
50866;PMS7003;36839;51.946;21.002;2024-03-07T14:44:31;16.50;15.50;11.00
50866;PMS7003;36839;51.946;21.002;2024-03-07T14:47:02;18.50;16.50;11.00
50866;PMS7003;36839;51.946;21.002;2024-03-07T14:49:34;18.00;12.50;10.00
50866;PMS7003;36839;51.946;21.002;2024-03-07T14:52:02;12.67;12.00;9.67
50866;PMS7003;36839;51.946;21.002;2024-03-07T14:54:29;24.33;17.00;12.33
50866;PMS7003;36839;51.946;21.002;2024-03-07T14:56:57;20.00;18.00;12.00
50866;PMS7003;36839;51.946;21.002;2024-03-07T14:59:23;23.00;16.00;12.00